Leslie, Georgia
Current Conditions -  °F | °C
As of 11:35 PM on Saturday 20 Dec 2014 (Local Time) from KACJ Reporting Station
Overcast Overcast  
Wind Chill: 52°   Ceiling: 500
Heat Index: 52°   Visibility: 7mi
Dew Point: 52°   Wind: 5mph
Humidity: 100%   Direction: 70°ENE
Pressure: 30.19"   Gusts: NA
Location:  31.96°N, 84.09°W
Report Text: KACJ 210435Z AUTO 07004KT 7SM OVC005 11/11 A3019 RMK AO2
Loading
Personal Weather Stations






























Interactive Weather Map New forecast layout! Learn more

10-Day Weather Forecast

Advertisements
Track Severe Weather on mobile